sensor_id;sensor_type;location;lat;lon;timestamp;P1;durP1;ratioP1;P2;durP2;ratioP2
76894;SDS011;65855;42.030;13.078;2024-01-07T00:02:12;5.90;;;1.60;;
76894;SDS011;65855;42.030;13.078;2024-01-07T00:04:37;3.70;;;1.33;;
76894;SDS011;65855;42.030;13.078;2024-01-07T00:07:04;3.95;;;1.80;;
76894;SDS011;65855;42.030;13.078;2024-01-07T00:09:29;5.72;;;2.42;;
76894;SDS011;65855;42.030;13.078;2024-01-07T00:11:54;4.15;;;1.52;;
76894;SDS011;65855;42.030;13.078;2024-01-07T00:14:20;4.85;;;1.35;;
76894;SDS011;65855;42.030;13.078;2024-01-07T00:16:45;5.20;;;2.23;;
76894;SDS011;65855;42.030;13.078;2024-01-07T00:19:10;4.97;;;2.28;;
76894;SDS011;65855;42.030;13.078;2024-01-07T00:21:35;6.03;;;2.13;;
76894;SDS011;65855;42.030;13.078;2024-01-07T00:24:01;6.37;;;2.87;;
76894;SDS011;65855;42.030;13.078;2024-01-07T00:26:26;10.15;;;4.95;;
76894;SDS011;65855;42.030;13.078;2024-01-07T00:28:51;9.53;;;5.03;;
76894;SDS011;65855;42.030;13.078;2024-01-07T00:31:17;9.77;;;4.10;;
76894;SDS011;65855;42.030;13.078;2024-01-07T00:33:42;11.87;;;4.10;;
76894;SDS011;65855;42.030;13.078;2024-01-07T00:36:07;9.93;;;4.43;;
76894;SDS011;65855;42.030;13.078;2024-01-07T00:38:33;8.38;;;3.80;;
76894;SDS011;65855;42.030;13.078;2024-01-07T00:40:58;11.03;;;5.53;;
76894;SDS011;65855;42.030;13.078;2024-01-07T00:43:23;13.60;;;5.00;;
76894;SDS011;65855;42.030;13.078;2024-01-07T00:45:49;6.87;;;2.47;;
76894;SDS011;65855;42.030;13.078;2024-01-07T00:48:14;6.13;;;2.67;;
76894;SDS011;65855;42.030;13.078;2024-01-07T00:50:40;5.68;;;1.98;;
76894;SDS011;65855;42.030;13.078;2024-01-07T00:53:05;5.57;;;2.20;;
76894;SDS011;65855;42.030;13.078;2024-01-07T00:55:30;6.90;;;2.45;;
76894;SDS011;65855;42.030;13.078;2024-01-07T00:57:55;5.68;;;2.67;;
76894;SDS011;65855;42.030;13.078;2024-01-07T01:00:21;5.00;;;2.45;;
76894;SDS011;65855;42.030;13.078;2024-01-07T01:02:47;4.90;;;2.47;;
76894;SDS011;65855;42.030;13.078;2024-01-07T01:05:12;3.33;;;1.48;;
76894;SDS011;65855;42.030;13.078;2024-01-07T01:07:37;5.70;;;2.28;;
76894;SDS011;65855;42.030;13.078;2024-01-07T01:10:03;8.03;;;3.53;;
76894;SDS011;65855;42.030;13.078;2024-01-07T01:12:28;4.13;;;1.98;;
76894;SDS011;65855;42.030;13.078;2024-01-07T01:14:54;4.28;;;2.33;;
76894;SDS011;65855;42.030;13.078;2024-01-07T01:17:19;4.93;;;2.15;;
76894;SDS011;65855;42.030;13.078;2024-01-07T01:19:44;13.73;;;5.70;;
76894;SDS011;65855;42.030;13.078;2024-01-07T01:22:10;2.27;;;1.03;;
76894;SDS011;65855;42.030;13.078;2024-01-07T01:24:35;3.35;;;1.25;;
76894;SDS011;65855;42.030;13.078;2024-01-07T01:27:00;7.70;;;1.57;;
76894;SDS011;65855;42.030;13.078;2024-01-07T01:29:26;4.40;;;1.67;;
76894;SDS011;65855;42.030;13.078;2024-01-07T01:31:51;3.80;;;1.30;;
76894;SDS011;65855;42.030;13.078;2024-01-07T01:34:17;2.90;;;1.13;;
76894;SDS011;65855;42.030;13.078;2024-01-07T01:36:42;7.70;;;4.18;;
76894;SDS011;65855;42.030;13.078;2024-01-07T01:39:07;4.07;;;1.50;;
76894;SDS011;65855;42.030;13.078;2024-01-07T01:41:33;4.30;;;1.23;;
76894;SDS011;65855;42.030;13.078;2024-01-07T01:43:59;7.25;;;1.02;;
76894;SDS011;65855;42.030;13.078;2024-01-07T01:46:24;5.00;;;1.55;;
76894;SDS011;65855;42.030;13.078;2024-01-07T01:48:49;5.25;;;1.90;;
76894;SDS011;65855;42.030;13.078;2024-01-07T01:51:15;4.93;;;2.33;;
76894;SDS011;65855;42.030;13.078;2024-01-07T01:53:41;4.80;;;1.33;;
76894;SDS011;65855;42.030;13.078;2024-01-07T01:56:06;4.20;;;1.92;;
76894;SDS011;65855;42.030;13.078;2024-01-07T01:58:32;3.97;;;1.35;;
76894;SDS011;65855;42.030;13.078;2024-01-07T02:00:57;3.10;;;1.27;;
76894;SDS011;65855;42.030;13.078;2024-01-07T02:03:23;3.45;;;1.27;;
76894;SDS011;65855;42.030;13.078;2024-01-07T02:05:49;5.13;;;1.48;;
76894;SDS011;65855;42.030;13.078;2024-01-07T02:08:15;7.63;;;3.22;;
76894;SDS011;65855;42.030;13.078;2024-01-07T02:10:41;7.90;;;3.55;;
76894;SDS011;65855;42.030;13.078;2024-01-07T02:13:06;6.57;;;2.88;;
76894;SDS011;65855;42.030;13.078;2024-01-07T02:15:31;5.40;;;2.27;;
76894;SDS011;65855;42.030;13.078;2024-01-07T02:17:57;5.63;;;2.47;;
76894;SDS011;65855;42.030;13.078;2024-01-07T02:20:22;6.18;;;2.92;;
76894;SDS011;65855;42.030;13.078;2024-01-07T02:22:48;9.07;;;3.35;;
76894;SDS011;65855;42.030;13.078;2024-01-07T02:25:13;7.10;;;2.83;;
76894;SDS011;65855;42.030;13.078;2024-01-07T02:27:38;8.00;;;3.97;;
76894;SDS011;65855;42.030;13.078;2024-01-07T02:30:04;9.13;;;4.63;;
76894;SDS011;65855;42.030;13.078;2024-01-07T02:32:29;8.52;;;3.75;;
76894;SDS011;65855;42.030;13.078;2024-01-07T02:34:59;8.38;;;3.28;;
76894;SDS011;65855;42.030;13.078;2024-01-07T02:37:24;8.90;;;3.73;;
76894;SDS011;65855;42.030;13.078;2024-01-07T02:39:49;7.00;;;3.40;;
76894;SDS011;65855;42.030;13.078;2024-01-07T02:42:15;6.40;;;3.20;;
76894;SDS011;65855;42.030;13.078;2024-01-07T02:44:40;6.03;;;2.50;;
76894;SDS011;65855;42.030;13.078;2024-01-07T02:47:05;6.50;;;2.57;;
76894;SDS011;65855;42.030;13.078;2024-01-07T02:49:30;8.23;;;3.23;;
76894;SDS011;65855;42.030;13.078;2024-01-07T02:51:56;8.23;;;3.90;;
76894;SDS011;65855;42.030;13.078;2024-01-07T02:54:21;6.75;;;3.17;;
76894;SDS011;65855;42.030;13.078;2024-01-07T02:56:46;10.23;;;3.47;;
76894;SDS011;65855;42.030;13.078;2024-01-07T02:59:12;7.73;;;3.53;;
76894;SDS011;65855;42.030;13.078;2024-01-07T03:01:37;7.93;;;3.97;;
76894;SDS011;65855;42.030;13.078;2024-01-07T03:04:09;10.80;;;3.60;;
76894;SDS011;65855;42.030;13.078;2024-01-07T03:06:34;7.85;;;3.17;;
76894;SDS011;65855;42.030;13.078;2024-01-07T03:09:00;5.75;;;2.40;;
76894;SDS011;65855;42.030;13.078;2024-01-07T03:11:25;8.00;;;3.17;;
76894;SDS011;65855;42.030;13.078;2024-01-07T03:13:50;5.28;;;2.45;;
76894;SDS011;65855;42.030;13.078;2024-01-07T03:16:19;6.17;;;2.37;;
76894;SDS011;65855;42.030;13.078;2024-01-07T03:18:45;5.85;;;2.10;;
76894;SDS011;65855;42.030;13.078;2024-01-07T03:21:16;8.83;;;3.03;;
76894;SDS011;65855;42.030;13.078;2024-01-07T03:23:41;6.05;;;3.08;;
76894;SDS011;65855;42.030;13.078;2024-01-07T03:26:06;5.27;;;2.07;;
76894;SDS011;65855;42.030;13.078;2024-01-07T03:28:32;6.57;;;2.50;;
76894;SDS011;65855;42.030;13.078;2024-01-07T03:30:57;5.47;;;2.63;;
76894;SDS011;65855;42.030;13.078;2024-01-07T03:33:22;7.33;;;3.57;;
76894;SDS011;65855;42.030;13.078;2024-01-07T03:35:47;4.77;;;1.97;;
76894;SDS011;65855;42.030;13.078;2024-01-07T03:38:13;9.23;;;2.47;;
76894;SDS011;65855;42.030;13.078;2024-01-07T03:40:38;6.07;;;2.83;;
76894;SDS011;65855;42.030;13.078;2024-01-07T03:43:03;6.90;;;2.00;;
76894;SDS011;65855;42.030;13.078;2024-01-07T03:45:29;7.10;;;2.40;;
76894;SDS011;65855;42.030;13.078;2024-01-07T03:47:54;5.55;;;2.22;;
76894;SDS011;65855;42.030;13.078;2024-01-07T03:50:20;5.43;;;2.10;;
76894;SDS011;65855;42.030;13.078;2024-01-07T03:52:45;5.83;;;2.67;;
76894;SDS011;65855;42.030;13.078;2024-01-07T03:55:13;8.70;;;2.73;;
76894;SDS011;65855;42.030;13.078;2024-01-07T03:57:38;4.88;;;1.83;;
76894;SDS011;65855;42.030;13.078;2024-01-07T04:00:04;5.37;;;1.97;;
76894;SDS011;65855;42.030;13.078;2024-01-07T04:02:29;4.68;;;2.05;;
76894;SDS011;65855;42.030;13.078;2024-01-07T04:04:55;6.15;;;2.50;;
76894;SDS011;65855;42.030;13.078;2024-01-07T04:07:20;5.73;;;3.03;;
76894;SDS011;65855;42.030;13.078;2024-01-07T04:09:45;5.20;;;2.33;;
76894;SDS011;65855;42.030;13.078;2024-01-07T04:12:10;5.47;;;1.97;;
76894;SDS011;65855;42.030;13.078;2024-01-07T04:14:36;6.10;;;1.80;;
76894;SDS011;65855;42.030;13.078;2024-01-07T04:17:01;3.73;;;1.60;;
76894;SDS011;65855;42.030;13.078;2024-01-07T04:19:26;4.57;;;1.80;;
76894;SDS011;65855;42.030;13.078;2024-01-07T04:21:52;6.00;;;2.67;;
76894;SDS011;65855;42.030;13.078;2024-01-07T04:24:17;5.00;;;1.93;;
76894;SDS011;65855;42.030;13.078;2024-01-07T04:26:42;4.82;;;1.83;;
76894;SDS011;65855;42.030;13.078;2024-01-07T04:29:07;3.57;;;2.00;;
76894;SDS011;65855;42.030;13.078;2024-01-07T04:31:33;4.77;;;1.87;;
76894;SDS011;65855;42.030;13.078;2024-01-07T04:33:58;3.87;;;1.83;;
76894;SDS011;65855;42.030;13.078;2024-01-07T04:36:23;4.70;;;1.73;;
76894;SDS011;65855;42.030;13.078;2024-01-07T04:38:48;2.93;;;1.13;;
76894;SDS011;65855;42.030;13.078;2024-01-07T04:41:14;4.23;;;2.17;;
76894;SDS011;65855;42.030;13.078;2024-01-07T04:43:39;3.40;;;1.20;;
76894;SDS011;65855;42.030;13.078;2024-01-07T04:46:05;3.55;;;1.50;;
76894;SDS011;65855;42.030;13.078;2024-01-07T04:48:31;4.95;;;2.03;;
76894;SDS011;65855;42.030;13.078;2024-01-07T04:50:56;3.90;;;1.43;;
76894;SDS011;65855;42.030;13.078;2024-01-07T04:53:22;4.47;;;1.52;;
76894;SDS011;65855;42.030;13.078;2024-01-07T04:55:47;3.50;;;1.20;;
76894;SDS011;65855;42.030;13.078;2024-01-07T04:58:12;3.80;;;1.90;;
76894;SDS011;65855;42.030;13.078;2024-01-07T05:00:37;4.78;;;1.58;;
76894;SDS011;65855;42.030;13.078;2024-01-07T05:03:03;8.48;;;2.30;;
76894;SDS011;65855;42.030;13.078;2024-01-07T05:05:28;4.47;;;1.60;;
76894;SDS011;65855;42.030;13.078;2024-01-07T05:07:53;6.53;;;1.90;;
76894;SDS011;65855;42.030;13.078;2024-01-07T05:10:19;4.20;;;1.23;;
76894;SDS011;65855;42.030;13.078;2024-01-07T05:12:44;3.85;;;1.27;;
76894;SDS011;65855;42.030;13.078;2024-01-07T05:15:09;3.20;;;1.17;;
76894;SDS011;65855;42.030;13.078;2024-01-07T05:17:35;2.58;;;1.42;;
76894;SDS011;65855;42.030;13.078;2024-01-07T05:20:00;3.07;;;1.73;;
76894;SDS011;65855;42.030;13.078;2024-01-07T05:22:25;3.58;;;1.52;;
76894;SDS011;65855;42.030;13.078;2024-01-07T05:24:51;3.00;;;1.13;;
76894;SDS011;65855;42.030;13.078;2024-01-07T05:27:16;3.43;;;2.00;;
76894;SDS011;65855;42.030;13.078;2024-01-07T05:29:44;3.30;;;1.07;;
76894;SDS011;65855;42.030;13.078;2024-01-07T05:32:10;3.03;;;1.42;;
76894;SDS011;65855;42.030;13.078;2024-01-07T05:34:35;5.27;;;1.53;;
76894;SDS011;65855;42.030;13.078;2024-01-07T05:37:00;4.70;;;1.73;;
76894;SDS011;65855;42.030;13.078;2024-01-07T05:39:25;2.93;;;1.37;;
76894;SDS011;65855;42.030;13.078;2024-01-07T05:41:51;3.40;;;1.33;;
76894;SDS011;65855;42.030;13.078;2024-01-07T05:44:16;2.97;;;0.97;;
76894;SDS011;65855;42.030;13.078;2024-01-07T05:46:41;3.77;;;1.40;;
76894;SDS011;65855;42.030;13.078;2024-01-07T05:49:07;2.53;;;1.13;;
76894;SDS011;65855;42.030;13.078;2024-01-07T05:51:33;3.13;;;1.40;;
76894;SDS011;65855;42.030;13.078;2024-01-07T05:53:58;2.23;;;0.77;;
76894;SDS011;65855;42.030;13.078;2024-01-07T05:56:23;3.70;;;1.60;;
76894;SDS011;65855;42.030;13.078;2024-01-07T05:58:49;3.17;;;1.30;;
76894;SDS011;65855;42.030;13.078;2024-01-07T06:01:20;3.13;;;1.45;;
76894;SDS011;65855;42.030;13.078;2024-01-07T06:03:46;2.92;;;1.58;;
76894;SDS011;65855;42.030;13.078;2024-01-07T06:06:12;3.35;;;1.15;;
76894;SDS011;65855;42.030;13.078;2024-01-07T06:08:37;2.47;;;1.38;;
76894;SDS011;65855;42.030;13.078;2024-01-07T06:11:03;2.83;;;1.20;;
76894;SDS011;65855;42.030;13.078;2024-01-07T06:13:28;2.58;;;1.17;;
76894;SDS011;65855;42.030;13.078;2024-01-07T06:15:53;2.53;;;1.10;;
76894;SDS011;65855;42.030;13.078;2024-01-07T06:18:19;3.73;;;1.30;;
76894;SDS011;65855;42.030;13.078;2024-01-07T06:20:44;4.07;;;1.67;;
76894;SDS011;65855;42.030;13.078;2024-01-07T06:23:09;14.80;;;5.20;;
76894;SDS011;65855;42.030;13.078;2024-01-07T06:25:35;11.45;;;4.60;;
76894;SDS011;65855;42.030;13.078;2024-01-07T06:28:00;14.35;;;5.75;;
76894;SDS011;65855;42.030;13.078;2024-01-07T06:30:25;21.38;;;6.80;;
76894;SDS011;65855;42.030;13.078;2024-01-07T06:32:51;17.97;;;7.03;;
76894;SDS011;65855;42.030;13.078;2024-01-07T06:35:17;36.28;;;16.40;;
76894;SDS011;65855;42.030;13.078;2024-01-07T06:37:42;28.43;;;11.37;;
76894;SDS011;65855;42.030;13.078;2024-01-07T06:40:07;25.70;;;9.93;;
76894;SDS011;65855;42.030;13.078;2024-01-07T06:42:33;10.98;;;4.65;;
76894;SDS011;65855;42.030;13.078;2024-01-07T06:44:58;4.10;;;1.63;;
76894;SDS011;65855;42.030;13.078;2024-01-07T06:47:23;2.23;;;1.03;;
76894;SDS011;65855;42.030;13.078;2024-01-07T06:49:49;2.90;;;1.77;;
76894;SDS011;65855;42.030;13.078;2024-01-07T06:52:14;18.35;;;7.20;;
76894;SDS011;65855;42.030;13.078;2024-01-07T06:54:39;13.87;;;6.17;;
76894;SDS011;65855;42.030;13.078;2024-01-07T06:57:05;6.13;;;2.72;;
76894;SDS011;65855;42.030;13.078;2024-01-07T06:59:30;3.37;;;1.13;;
76894;SDS011;65855;42.030;13.078;2024-01-07T07:01:55;2.65;;;1.30;;
76894;SDS011;65855;42.030;13.078;2024-01-07T07:04:21;3.92;;;1.55;;
76894;SDS011;65855;42.030;13.078;2024-01-07T07:06:47;2.83;;;1.48;;
76894;SDS011;65855;42.030;13.078;2024-01-07T07:09:12;3.15;;;1.35;;
76894;SDS011;65855;42.030;13.078;2024-01-07T07:11:38;4.90;;;1.47;;
76894;SDS011;65855;42.030;13.078;2024-01-07T07:14:03;3.83;;;1.67;;
76894;SDS011;65855;42.030;13.078;2024-01-07T07:16:28;5.73;;;1.90;;
76894;SDS011;65855;42.030;13.078;2024-01-07T07:18:53;4.07;;;1.35;;
76894;SDS011;65855;42.030;13.078;2024-01-07T07:21:19;2.77;;;1.00;;
76894;SDS011;65855;42.030;13.078;2024-01-07T07:23:44;2.97;;;1.93;;
76894;SDS011;65855;42.030;13.078;2024-01-07T07:26:09;3.40;;;1.40;;
76894;SDS011;65855;42.030;13.078;2024-01-07T07:28:35;4.57;;;2.60;;
76894;SDS011;65855;42.030;13.078;2024-01-07T07:31:00;6.75;;;2.95;;
76894;SDS011;65855;42.030;13.078;2024-01-07T07:33:25;4.50;;;1.93;;
76894;SDS011;65855;42.030;13.078;2024-01-07T07:35:52;4.93;;;1.73;;
76894;SDS011;65855;42.030;13.078;2024-01-07T07:38:17;4.05;;;2.13;;
76894;SDS011;65855;42.030;13.078;2024-01-07T07:40:43;5.57;;;1.50;;
76894;SDS011;65855;42.030;13.078;2024-01-07T07:43:09;3.55;;;1.50;;
76894;SDS011;65855;42.030;13.078;2024-01-07T07:45:35;4.95;;;1.85;;
76894;SDS011;65855;42.030;13.078;2024-01-07T07:48:00;4.57;;;2.00;;
76894;SDS011;65855;42.030;13.078;2024-01-07T07:50:25;6.63;;;2.20;;
76894;SDS011;65855;42.030;13.078;2024-01-07T07:52:50;5.95;;;2.70;;
76894;SDS011;65855;42.030;13.078;2024-01-07T07:55:16;5.60;;;2.40;;
76894;SDS011;65855;42.030;13.078;2024-01-07T07:57:41;5.40;;;2.10;;
76894;SDS011;65855;42.030;13.078;2024-01-07T08:00:07;5.20;;;2.13;;
76894;SDS011;65855;42.030;13.078;2024-01-07T08:02:32;5.20;;;2.08;;
76894;SDS011;65855;42.030;13.078;2024-01-07T08:04:57;4.22;;;1.80;;
76894;SDS011;65855;42.030;13.078;2024-01-07T08:07:23;4.97;;;1.77;;
76894;SDS011;65855;42.030;13.078;2024-01-07T08:09:48;5.87;;;2.13;;
76894;SDS011;65855;42.030;13.078;2024-01-07T08:12:13;6.07;;;1.97;;
76894;SDS011;65855;42.030;13.078;2024-01-07T08:14:39;5.28;;;2.25;;
76894;SDS011;65855;42.030;13.078;2024-01-07T08:17:06;6.53;;;2.47;;
76894;SDS011;65855;42.030;13.078;2024-01-07T08:19:31;5.40;;;2.03;;
76894;SDS011;65855;42.030;13.078;2024-01-07T08:21:57;5.95;;;2.83;;
76894;SDS011;65855;42.030;13.078;2024-01-07T08:24:22;5.15;;;1.85;;
76894;SDS011;65855;42.030;13.078;2024-01-07T08:26:47;6.47;;;2.53;;
76894;SDS011;65855;42.030;13.078;2024-01-07T08:29:13;7.57;;;3.13;;
76894;SDS011;65855;42.030;13.078;2024-01-07T08:31:38;9.40;;;5.20;;
76894;SDS011;65855;42.030;13.078;2024-01-07T08:34:04;15.23;;;6.93;;
76894;SDS011;65855;42.030;13.078;2024-01-07T08:36:29;10.43;;;4.80;;
76894;SDS011;65855;42.030;13.078;2024-01-07T08:38:55;8.80;;;3.83;;
76894;SDS011;65855;42.030;13.078;2024-01-07T08:41:20;9.10;;;4.72;;
76894;SDS011;65855;42.030;13.078;2024-01-07T08:43:46;8.00;;;4.47;;
76894;SDS011;65855;42.030;13.078;2024-01-07T08:46:11;9.48;;;5.25;;
76894;SDS011;65855;42.030;13.078;2024-01-07T08:48:38;8.88;;;4.05;;
76894;SDS011;65855;42.030;13.078;2024-01-07T08:51:04;10.30;;;4.27;;
76894;SDS011;65855;42.030;13.078;2024-01-07T08:53:29;7.95;;;4.35;;
76894;SDS011;65855;42.030;13.078;2024-01-07T08:55:54;9.90;;;5.10;;
76894;SDS011;65855;42.030;13.078;2024-01-07T08:58:20;7.67;;;3.20;;
76894;SDS011;65855;42.030;13.078;2024-01-07T09:00:45;8.83;;;3.77;;
76894;SDS011;65855;42.030;13.078;2024-01-07T09:03:10;10.20;;;3.87;;
76894;SDS011;65855;42.030;13.078;2024-01-07T09:05:36;6.60;;;3.63;;
76894;SDS011;65855;42.030;13.078;2024-01-07T09:08:01;8.00;;;3.45;;
76894;SDS011;65855;42.030;13.078;2024-01-07T09:10:27;8.77;;;4.32;;
76894;SDS011;65855;42.030;13.078;2024-01-07T09:12:52;15.68;;;9.38;;
76894;SDS011;65855;42.030;13.078;2024-01-07T09:15:18;20.65;;;14.75;;
76894;SDS011;65855;42.030;13.078;2024-01-07T09:17:44;15.40;;;11.98;;
76894;SDS011;65855;42.030;13.078;2024-01-07T09:20:09;14.43;;;9.47;;
76894;SDS011;65855;42.030;13.078;2024-01-07T09:22:35;9.30;;;5.43;;
76894;SDS011;65855;42.030;13.078;2024-01-07T09:25:02;9.20;;;4.25;;
76894;SDS011;65855;42.030;13.078;2024-01-07T09:27:28;10.68;;;6.40;;
76894;SDS011;65855;42.030;13.078;2024-01-07T09:29:53;12.52;;;7.00;;
76894;SDS011;65855;42.030;13.078;2024-01-07T09:32:19;14.40;;;7.63;;
76894;SDS011;65855;42.030;13.078;2024-01-07T09:34:44;9.18;;;4.93;;
76894;SDS011;65855;42.030;13.078;2024-01-07T09:37:09;8.27;;;3.60;;
76894;SDS011;65855;42.030;13.078;2024-01-07T09:39:38;7.30;;;3.67;;
76894;SDS011;65855;42.030;13.078;2024-01-07T09:42:04;9.02;;;3.80;;
76894;SDS011;65855;42.030;13.078;2024-01-07T09:44:29;8.13;;;3.33;;
76894;SDS011;65855;42.030;13.078;2024-01-07T09:46:55;6.65;;;2.95;;
76894;SDS011;65855;42.030;13.078;2024-01-07T09:49:21;7.13;;;2.90;;
76894;SDS011;65855;42.030;13.078;2024-01-07T09:51:47;7.60;;;3.25;;
76894;SDS011;65855;42.030;13.078;2024-01-07T09:54:14;7.72;;;3.38;;
76894;SDS011;65855;42.030;13.078;2024-01-07T09:56:50;5.10;;;2.28;;
76894;SDS011;65855;42.030;13.078;2024-01-07T09:59:16;6.05;;;2.15;;
76894;SDS011;65855;42.030;13.078;2024-01-07T10:01:41;7.85;;;2.72;;
76894;SDS011;65855;42.030;13.078;2024-01-07T10:04:07;8.07;;;1.92;;
76894;SDS011;65855;42.030;13.078;2024-01-07T10:06:32;4.67;;;1.90;;
76894;SDS011;65855;42.030;13.078;2024-01-07T10:08:58;4.00;;;1.23;;
76894;SDS011;65855;42.030;13.078;2024-01-07T10:11:23;5.13;;;1.63;;
76894;SDS011;65855;42.030;13.078;2024-01-07T10:13:48;4.30;;;1.33;;
76894;SDS011;65855;42.030;13.078;2024-01-07T10:16:16;4.80;;;1.67;;
76894;SDS011;65855;42.030;13.078;2024-01-07T10:18:41;5.28;;;1.60;;
76894;SDS011;65855;42.030;13.078;2024-01-07T10:21:07;4.00;;;1.77;;
76894;SDS011;65855;42.030;13.078;2024-01-07T10:23:32;4.75;;;2.15;;
76894;SDS011;65855;42.030;13.078;2024-01-07T10:25:57;4.70;;;1.65;;
76894;SDS011;65855;42.030;13.078;2024-01-07T10:28:23;3.45;;;1.65;;
76894;SDS011;65855;42.030;13.078;2024-01-07T10:30:48;3.73;;;1.83;;
76894;SDS011;65855;42.030;13.078;2024-01-07T10:33:14;4.22;;;1.90;;
76894;SDS011;65855;42.030;13.078;2024-01-07T10:35:41;4.35;;;1.63;;
76894;SDS011;65855;42.030;13.078;2024-01-07T10:38:10;4.45;;;1.92;;
76894;SDS011;65855;42.030;13.078;2024-01-07T10:40:35;8.53;;;3.03;;
76894;SDS011;65855;42.030;13.078;2024-01-07T10:43:02;10.05;;;4.60;;
76894;SDS011;65855;42.030;13.078;2024-01-07T10:45:28;18.90;;;7.43;;
76894;SDS011;65855;42.030;13.078;2024-01-07T10:47:54;13.52;;;6.78;;
76894;SDS011;65855;42.030;13.078;2024-01-07T10:50:20;13.40;;;6.07;;
76894;SDS011;65855;42.030;13.078;2024-01-07T10:52:49;9.98;;;4.13;;
76894;SDS011;65855;42.030;13.078;2024-01-07T10:55:17;7.72;;;3.28;;
76894;SDS011;65855;42.030;13.078;2024-01-07T10:57:43;5.65;;;2.35;;
76894;SDS011;65855;42.030;13.078;2024-01-07T11:00:09;6.45;;;2.95;;
76894;SDS011;65855;42.030;13.078;2024-01-07T11:02:37;6.30;;;2.47;;
76894;SDS011;65855;42.030;13.078;2024-01-07T11:05:07;4.88;;;1.73;;
76894;SDS011;65855;42.030;13.078;2024-01-07T11:07:44;4.10;;;1.23;;
76894;SDS011;65855;42.030;13.078;2024-01-07T11:12:43;6.43;;;2.78;;
76894;SDS011;65855;42.030;13.078;2024-01-07T11:15:08;8.77;;;3.55;;
76894;SDS011;65855;42.030;13.078;2024-01-07T11:20:05;4.00;;;1.15;;
76894;SDS011;65855;42.030;13.078;2024-01-07T11:22:30;3.20;;;1.00;;
76894;SDS011;65855;42.030;13.078;2024-01-07T11:24:56;3.33;;;0.90;;
76894;SDS011;65855;42.030;13.078;2024-01-07T11:27:22;3.20;;;1.38;;
76894;SDS011;65855;42.030;13.078;2024-01-07T11:32:21;6.25;;;1.73;;
76894;SDS011;65855;42.030;13.078;2024-01-07T11:34:46;4.88;;;1.88;;
76894;SDS011;65855;42.030;13.078;2024-01-07T11:37:14;4.95;;;2.00;;
76894;SDS011;65855;42.030;13.078;2024-01-07T11:39:44;4.47;;;1.70;;
76894;SDS011;65855;42.030;13.078;2024-01-07T11:42:09;7.05;;;2.53;;
76894;SDS011;65855;42.030;13.078;2024-01-07T11:44:34;9.40;;;4.82;;
76894;SDS011;65855;42.030;13.078;2024-01-07T11:47:02;10.93;;;5.65;;
76894;SDS011;65855;42.030;13.078;2024-01-07T11:49:27;7.88;;;3.03;;
76894;SDS011;65855;42.030;13.078;2024-01-07T11:51:53;9.05;;;4.90;;
76894;SDS011;65855;42.030;13.078;2024-01-07T11:54:19;9.70;;;4.27;;
76894;SDS011;65855;42.030;13.078;2024-01-07T11:56:44;8.25;;;4.30;;
76894;SDS011;65855;42.030;13.078;2024-01-07T11:59:09;9.15;;;4.53;;
76894;SDS011;65855;42.030;13.078;2024-01-07T12:01:34;7.80;;;3.50;;
76894;SDS011;65855;42.030;13.078;2024-01-07T12:04:00;9.37;;;4.40;;
76894;SDS011;65855;42.030;13.078;2024-01-07T12:06:25;8.23;;;3.92;;
76894;SDS011;65855;42.030;13.078;2024-01-07T12:08:51;9.80;;;4.72;;
76894;SDS011;65855;42.030;13.078;2024-01-07T12:11:17;39.72;;;17.77;;
76894;SDS011;65855;42.030;13.078;2024-01-07T12:13:43;9.18;;;3.95;;
76894;SDS011;65855;42.030;13.078;2024-01-07T12:16:09;8.18;;;5.15;;
76894;SDS011;65855;42.030;13.078;2024-01-07T12:18:41;9.50;;;5.13;;
76894;SDS011;65855;42.030;13.078;2024-01-07T12:21:07;8.98;;;3.72;;
76894;SDS011;65855;42.030;13.078;2024-01-07T12:23:36;8.95;;;4.72;;
76894;SDS011;65855;42.030;13.078;2024-01-07T12:26:08;13.30;;;7.63;;
76894;SDS011;65855;42.030;13.078;2024-01-07T12:28:34;11.80;;;5.50;;
76894;SDS011;65855;42.030;13.078;2024-01-07T12:30:59;11.95;;;6.07;;
76894;SDS011;65855;42.030;13.078;2024-01-07T12:33:26;8.95;;;4.20;;
76894;SDS011;65855;42.030;13.078;2024-01-07T12:35:53;6.60;;;2.88;;
76894;SDS011;65855;42.030;13.078;2024-01-07T12:38:26;7.68;;;3.47;;
76894;SDS011;65855;42.030;13.078;2024-01-07T12:40:52;7.07;;;3.22;;
76894;SDS011;65855;42.030;13.078;2024-01-07T12:43:17;6.10;;;2.58;;
76894;SDS011;65855;42.030;13.078;2024-01-07T12:45:42;5.20;;;2.00;;
76894;SDS011;65855;42.030;13.078;2024-01-07T12:48:08;6.73;;;2.80;;
76894;SDS011;65855;42.030;13.078;2024-01-07T12:50:33;10.00;;;4.67;;
76894;SDS011;65855;42.030;13.078;2024-01-07T12:52:58;7.70;;;3.13;;
76894;SDS011;65855;42.030;13.078;2024-01-07T12:55:24;4.32;;;2.15;;
76894;SDS011;65855;42.030;13.078;2024-01-07T12:57:50;9.27;;;2.80;;
76894;SDS011;65855;42.030;13.078;2024-01-07T13:00:15;8.40;;;3.27;;
76894;SDS011;65855;42.030;13.078;2024-01-07T13:02:41;7.90;;;4.28;;
76894;SDS011;65855;42.030;13.078;2024-01-07T13:05:06;15.40;;;7.38;;
76894;SDS011;65855;42.030;13.078;2024-01-07T13:07:32;6.88;;;2.90;;
76894;SDS011;65855;42.030;13.078;2024-01-07T13:09:57;6.45;;;3.05;;
76894;SDS011;65855;42.030;13.078;2024-01-07T13:12:22;6.87;;;3.17;;
76894;SDS011;65855;42.030;13.078;2024-01-07T13:14:48;6.28;;;2.38;;
76894;SDS011;65855;42.030;13.078;2024-01-07T13:17:13;7.77;;;3.87;;
76894;SDS011;65855;42.030;13.078;2024-01-07T13:19:39;9.85;;;4.85;;
76894;SDS011;65855;42.030;13.078;2024-01-07T13:22:04;7.45;;;2.60;;
76894;SDS011;65855;42.030;13.078;2024-01-07T13:24:30;7.80;;;3.03;;
76894;SDS011;65855;42.030;13.078;2024-01-07T13:26:55;13.47;;;6.80;;
76894;SDS011;65855;42.030;13.078;2024-01-07T13:29:20;9.40;;;4.03;;
76894;SDS011;65855;42.030;13.078;2024-01-07T13:31:45;6.67;;;2.63;;
76894;SDS011;65855;42.030;13.078;2024-01-07T13:34:11;8.67;;;3.83;;
76894;SDS011;65855;42.030;13.078;2024-01-07T13:36:39;7.75;;;3.55;;
76894;SDS011;65855;42.030;13.078;2024-01-07T13:39:04;11.57;;;6.60;;
76894;SDS011;65855;42.030;13.078;2024-01-07T13:41:32;11.60;;;6.55;;
76894;SDS011;65855;42.030;13.078;2024-01-07T13:43:58;10.88;;;5.93;;
76894;SDS011;65855;42.030;13.078;2024-01-07T13:46:23;7.63;;;3.70;;
76894;SDS011;65855;42.030;13.078;2024-01-07T13:48:50;11.38;;;6.28;;
76894;SDS011;65855;42.030;13.078;2024-01-07T13:51:16;12.43;;;6.43;;
76894;SDS011;65855;42.030;13.078;2024-01-07T13:53:42;9.57;;;5.68;;
76894;SDS011;65855;42.030;13.078;2024-01-07T13:56:09;9.60;;;4.10;;
76894;SDS011;65855;42.030;13.078;2024-01-07T13:58:34;8.68;;;4.60;;
76894;SDS011;65855;42.030;13.078;2024-01-07T14:01:00;9.20;;;4.47;;
76894;SDS011;65855;42.030;13.078;2024-01-07T14:03:25;10.10;;;4.83;;
76894;SDS011;65855;42.030;13.078;2024-01-07T14:05:50;9.23;;;4.88;;
76894;SDS011;65855;42.030;13.078;2024-01-07T14:08:16;10.95;;;5.40;;
76894;SDS011;65855;42.030;13.078;2024-01-07T14:10:41;10.27;;;5.18;;
76894;SDS011;65855;42.030;13.078;2024-01-07T14:13:07;10.07;;;5.40;;
76894;SDS011;65855;42.030;13.078;2024-01-07T14:15:32;11.63;;;6.45;;
76894;SDS011;65855;42.030;13.078;2024-01-07T14:17:57;10.55;;;5.85;;
76894;SDS011;65855;42.030;13.078;2024-01-07T14:20:23;8.33;;;4.27;;
76894;SDS011;65855;42.030;13.078;2024-01-07T14:22:48;7.67;;;4.57;;
76894;SDS011;65855;42.030;13.078;2024-01-07T14:25:13;6.95;;;3.22;;
76894;SDS011;65855;42.030;13.078;2024-01-07T14:27:39;7.93;;;4.18;;
76894;SDS011;65855;42.030;13.078;2024-01-07T14:30:05;8.13;;;4.20;;
76894;SDS011;65855;42.030;13.078;2024-01-07T14:32:30;9.18;;;4.93;;